Time;durP1;ratioP1;P1;durP2;ratioP2;P2;SDS_P1;SDS_P2;PMS_P1;PMS_P2;Temp;Humidity;BMP_temperature;BMP_pressure;BME280_temperature;BME280_humidity;BME280_pressure;Samples;Min_cycle;Max_cycle;Signal;HPM_P1;HPM_P2
2023/10/25 00:02:14;;;;;;;7.93;1.10;;;;;;;18.25;50.19;99980.03;5072657;28;20526;-61
2023/10/25 00:04:39;;;;;;;6.20;1.60;;;;;;;18.22;49.23;99966.84;5055449;28;20036;-61
2023/10/25 00:07:05;;;;;;;2.60;1.02;;;;;;;18.25;49.69;99977.31;5073238;28;20116;-60
2023/10/25 00:09:30;;;;;;;3.33;0.93;;;;;;;18.23;48.91;99976.69;5071858;28;20036;-61
2023/10/25 00:11:55;;;;;;;1.30;1.20;;;;;;;18.23;49.82;99968.53;5055422;28;20059;-61
2023/10/25 00:14:22;;;;;;;2.55;1.05;;;;;;;18.26;49.60;99971.66;5072054;28;20036;-61
2023/10/25 00:16:47;;;;;;;4.00;1.40;;;;;;;18.25;48.67;99966.47;5055249;28;20129;-60
2023/10/25 00:19:12;;;;;;;1.20;1.08;;;;;;;18.27;48.76;99967.09;5071847;28;20504;-61
2023/10/25 00:21:37;;;;;;;3.55;1.30;;;;;;;18.28;49.25;99963.34;5071887;28;20519;-61
2023/10/25 00:24:03;;;;;;;7.70;1.73;;;;;;;18.28;49.03;99968.78;5073157;28;20389;-60
2023/10/25 00:26:28;;;;;;;2.35;0.70;;;;;;;18.26;48.75;99966.25;5073036;28;20403;-60
2023/10/25 00:28:54;;;;;;;3.65;1.25;;;;;;;18.28;49.19;99958.78;5055038;28;20056;-60
2023/10/25 00:31:19;;;;;;;4.82;1.25;;;;;;;18.29;49.22;99957.72;5073028;28;20107;-60
2023/10/25 00:33:44;;;;;;;4.72;1.48;;;;;;;18.29;49.04;99963.13;5073073;28;20051;-61
2023/10/25 00:36:11;;;;;;;1.48;0.80;;;;;;;18.29;49.07;99959.59;5071706;28;20035;-60
2023/10/25 00:38:36;;;;;;;5.28;1.65;;;;;;;18.30;49.12;99955.84;5054943;28;20127;-60
2023/10/25 00:41:01;;;;;;;1.55;0.57;;;;;;;18.33;49.40;99966.28;5072809;28;20119;-60
2023/10/25 00:43:26;;;;;;;2.33;1.58;;;;;;;18.32;49.72;99964.59;5071703;28;20033;-60
2023/10/25 00:46:14;;;;;;;3.42;1.15;;;;;;;18.33;49.36;99958.16;5045590;28;20059;-60
2023/10/25 00:48:46;;;;;;;8.52;1.45;;;;;;;18.34;48.89;99957.94;5071926;28;20119;-61
2023/10/25 00:51:15;;;;;;;;;;;;;;;18.35;49.62;99959.63;5071886;28;20432;-60
2023/10/25 00:53:42;;;;;;;2.97;1.02;;;;;;;18.37;49.06;99962.16;5049161;28;19928;-62
2023/10/25 00:56:10;;;;;;;6.38;1.00;;;;;;;18.39;48.72;99962.78;5034857;28;20120;-60
2023/10/25 00:58:36;;;;;;;2.72;0.98;;;;;;;18.41;49.10;99955.28;5051803;28;20025;-60
2023/10/25 01:01:02;;;;;;;7.20;1.00;;;;;;;18.40;48.85;99940.88;5035503;28;20021;-60
2023/10/25 01:03:27;;;;;;;1.95;0.70;;;;;;;18.43;49.21;99945.06;5053605;28;20483;-60
2023/10/25 01:05:52;;;;;;;3.00;0.70;;;;;;;18.45;49.29;99943.00;5052699;28;20029;-60
2023/10/25 01:08:21;;;;;;;3.22;0.90;;;;;;;18.45;48.92;99937.59;5052970;28;20021;-60
2023/10/25 01:10:49;;;;;;;1.15;0.88;;;;;;;18.44;48.94;99933.19;5051465;28;20374;-60
2023/10/25 01:13:14;;;;;;;4.03;0.73;;;;;;;18.43;49.19;99939.63;5052485;28;20111;-60
2023/10/25 01:15:40;;;;;;;6.88;0.77;;;;;;;18.41;49.17;99930.88;5051462;28;20033;-60
2023/10/25 01:18:05;;;;;;;1.88;0.63;;;;;;;18.39;49.28;99922.13;5051254;28;20546;-60
2023/10/25 01:20:32;;;;;;;3.40;1.02;;;;;;;18.40;48.92;99919.19;5034911;28;20492;-60
2023/10/25 01:22:57;;;;;;;2.10;1.00;;;;;;;18.41;49.09;99918.16;5052151;28;20025;-59
2023/10/25 01:25:22;;;;;;;3.60;0.75;;;;;;;18.42;48.87;99910.88;5054282;28;20104;-60
2023/10/25 01:27:48;;;;;;;1.95;0.77;;;;;;;18.45;49.25;99915.88;5054144;28;20037;-59
2023/10/25 01:30:13;;;;;;;4.50;0.80;;;;;;;18.44;48.72;99908.78;5036718;28;20056;-60
2023/10/25 01:32:38;;;;;;;4.60;0.70;;;;;;;18.41;48.77;99903.75;5035638;28;20025;-60
2023/10/25 01:35:05;;;;;;;4.25;1.02;;;;;;;18.41;49.31;99901.88;5036930;28;20049;-60
2023/10/25 01:37:31;;;;;;;1.60;0.90;;;;;;;18.39;49.28;99901.25;5054206;28;20040;-59
2023/10/25 01:39:56;;;;;;;2.08;1.35;;;;;;;18.34;48.90;99903.72;5051204;28;20036;-60
2023/10/25 01:42:21;;;;;;;2.67;0.70;;;;;;;18.30;49.32;99907.03;5051388;28;20488;-60
2023/10/25 01:44:46;;;;;;;2.65;0.90;;;;;;;18.26;49.41;99908.47;5034770;28;20037;-60
2023/10/25 01:47:12;;;;;;;2.80;0.90;;;;;;;18.21;49.41;99897.41;5050942;28;20475;-60
2023/10/25 01:49:37;;;;;;;5.68;1.08;;;;;;;18.16;48.76;99900.72;5050854;28;20037;-60
2023/10/25 01:52:03;;;;;;;8.05;0.85;;;;;;;18.09;48.94;99888.19;5050865;28;20415;-60
2023/10/25 01:54:28;;;;;;;8.25;0.90;;;;;;;18.06;48.76;99885.88;5052256;28;20473;-60
2023/10/25 01:56:53;;;;;;;3.15;0.88;;;;;;;17.99;48.72;99883.97;5054459;28;20091;-60
2023/10/25 01:59:18;;;;;;;6.07;1.25;;;;;;;17.94;48.50;99875.59;5054403;28;20086;-60
2023/10/25 02:01:44;;;;;;;1.83;0.75;;;;;;;17.91;48.79;99876.00;5054493;28;20044;-60
2023/10/25 02:04:09;;;;;;;6.22;0.90;;;;;;;17.87;49.38;99872.00;5054675;28;20033;-60
2023/10/25 02:06:35;;;;;;;3.08;0.80;;;;;;;17.82;48.88;99871.75;5036508;28;20142;-60
2023/10/25 02:09:00;;;;;;;0.95;0.68;;;;;;;17.79;48.50;99865.91;5036866;28;20245;-60
2023/10/25 02:11:25;;;;;;;3.20;1.23;;;;;;;17.74;49.46;99863.78;5054212;28;20080;-60
2023/10/25 02:13:51;;;;;;;2.15;1.02;;;;;;;17.70;49.08;99857.09;5054133;28;20040;-60
2023/10/25 02:16:17;;;;;;;1.73;0.98;;;;;;;17.67;48.90;99845.84;5053889;28;20544;-60
2023/10/25 02:18:43;;;;;;;1.77;0.80;;;;;;;17.65;49.54;99848.72;5054474;28;20040;-60
2023/10/25 02:21:09;;;;;;;3.30;1.08;;;;;;;17.62;49.76;99846.41;5055275;28;20025;-60
2023/10/25 02:23:36;;;;;;;3.03;0.60;;;;;;;17.61;49.55;99842.06;5055115;28;20069;-60
2023/10/25 02:26:01;;;;;;;1.55;0.85;;;;;;;17.61;49.72;99846.63;5055648;28;20491;-60
2023/10/25 02:28:27;;;;;;;4.43;0.88;;;;;;;17.61;48.94;99841.22;5054050;28;20112;-60
2023/10/25 02:30:54;;;;;;;7.20;0.80;;;;;;;17.60;48.94;99839.53;5055198;28;20032;-60
2023/10/25 02:33:19;;;;;;;2.13;0.73;;;;;;;17.61;49.78;99828.50;5055225;28;20037;-61
2023/10/25 02:35:44;;;;;;;2.30;1.13;;;;;;;17.62;49.52;99827.47;5053944;28;20041;-59
2023/10/25 02:38:10;;;;;;;4.63;0.85;;;;;;;17.61;50.04;99823.09;5053653;28;20037;-60
2023/10/25 02:40:37;;;;;;;1.65;0.65;;;;;;;17.64;49.56;99817.28;5037093;28;20041;-60
2023/10/25 02:43:02;;;;;;;5.03;0.50;;;;;;;17.65;49.34;99827.06;5037105;28;20029;-60
2023/10/25 02:45:28;;;;;;;0.80;0.50;;;;;;;17.65;49.25;99816.22;5053717;28;20025;-60
2023/10/25 02:47:57;;;;;;;1.00;0.50;;;;;;;17.65;49.47;99815.38;5053821;28;20033;-60
2023/10/25 02:50:22;;;;;;;1.40;0.52;;;;;;;17.63;49.77;99807.47;5054972;28;20451;-60
2023/10/25 02:52:48;;;;;;;4.38;1.52;;;;;;;17.58;49.30;99798.28;5036636;28;20049;-59
2023/10/25 02:55:15;;;;;;;2.90;0.63;;;;;;;17.61;50.14;99812.25;5054945;28;20515;-60
2023/10/25 02:57:41;;;;;;;1.98;0.90;;;;;;;17.58;49.94;99801.81;5053189;28;20500;-60
2023/10/25 03:00:06;;;;;;;5.18;0.77;;;;;;;17.58;49.06;99809.09;5053494;28;20180;-60
2023/10/25 03:02:32;;;;;;;3.58;1.05;;;;;;;17.55;49.53;99799.50;5053311;28;20044;-59
2023/10/25 03:05:00;;;;;;;5.03;0.88;;;;;;;17.51;49.08;99798.19;5053339;28;20036;-60
2023/10/25 03:07:26;;;;;;;2.03;0.57;;;;;;;17.46;50.00;99790.69;5052148;28;20516;-62
2023/10/25 03:09:51;;;;;;;1.98;0.63;;;;;;;17.42;49.14;99788.53;5053159;28;20037;-60
2023/10/25 03:12:17;;;;;;;0.30;0.30;;;;;;;17.37;50.19;99785.59;5036773;28;20025;-60
2023/10/25 03:14:42;;;;;;;2.50;0.50;;;;;;;17.35;49.09;99784.97;5053316;28;20033;-60
2023/10/25 03:17:07;;;;;;;3.47;0.50;;;;;;;17.30;49.71;99784.75;5053402;28;20087;-60
2023/10/25 03:19:33;;;;;;;0.82;0.68;;;;;;;17.27;49.38;99779.72;5036518;28;20086;-60
2023/10/25 03:21:58;;;;;;;0.82;0.50;;;;;;;17.21;49.70;99780.50;5036437;28;20032;-61
2023/10/25 03:24:24;;;;;;;1.00;0.60;;;;;;;17.20;50.13;99778.81;5036181;28;20492;-60
2023/10/25 03:26:49;;;;;;;1.33;0.35;;;;;;;17.20;49.42;99778.81;5054150;28;20033;-60
2023/10/25 03:29:14;;;;;;;1.75;0.70;;;;;;;17.17;49.03;99781.94;5052881;28;20030;-61
2023/10/25 03:31:40;;;;;;;8.55;2.42;;;;;;;17.16;50.15;99778.41;5036811;28;20072;-60
2023/10/25 03:34:05;;;;;;;1.80;0.47;;;;;;;17.16;49.26;99777.56;5054108;28;20396;-60
2023/10/25 03:36:30;;;;;;;8.60;0.70;;;;;;;17.15;49.55;99775.88;5052740;28;20040;-61
2023/10/25 03:38:56;;;;;;;2.65;1.00;;;;;;;17.17;50.18;99769.22;5053841;28;20119;-60
2023/10/25 03:41:21;;;;;;;1.63;0.90;;;;;;;17.19;49.93;99771.75;5067738;28;20039;-60
2023/10/25 03:43:46;;;;;;;4.07;1.13;;;;;;;17.24;50.58;99774.69;5074103;28;20508;-61
2023/10/25 03:46:12;;;;;;;1.63;1.05;;;;;;;17.25;50.05;99769.06;5056576;28;20033;-60
2023/10/25 03:48:38;;;;;;;1.48;0.60;;;;;;;17.31;50.10;99764.75;5067230;28;20039;-61
2023/10/25 03:51:04;;;;;;;5.88;0.98;;;;;;;17.36;50.37;99762.28;5072893;28;20058;-61
2023/10/25 03:53:30;;;;;;;2.75;0.98;;;;;;;17.38;49.53;99749.38;5072495;28;20389;-60
2023/10/25 03:55:56;;;;;;;2.40;0.80;;;;;;;17.41;49.66;99738.16;5072705;28;20511;-60
2023/10/25 03:58:22;;;;;;;5.80;0.77;;;;;;;17.47;50.56;99742.78;5072444;28;20115;-60
2023/10/25 04:00:47;;;;;;;7.32;0.88;;;;;;;17.50;50.47;99728.00;5074160;28;20035;-60
2023/10/25 04:03:13;;;;;;;1.27;0.60;;;;;;;17.53;50.51;99725.75;5074445;28;20541;-60
2023/10/25 04:05:41;;;;;;;2.33;0.77;;;;;;;17.55;49.59;99720.97;5072485;28;20111;-60
2023/10/25 04:08:07;;;;;;;0.68;0.50;;;;;;;17.54;50.25;99722.00;5072384;28;20102;-60
2023/10/25 04:10:32;;;;;;;0.77;0.50;;;;;;;17.61;50.22;99728.31;5073761;28;20496;-60
2023/10/25 04:12:57;;;;;;;2.17;0.47;;;;;;;17.61;50.23;99731.03;5073667;28;20446;-60
2023/10/25 04:15:25;;;;;;;2.35;1.45;;;;;;;17.65;50.54;99737.69;5072826;28;20032;-60
2023/10/25 04:17:50;;;;;;;2.05;0.50;;;;;;;17.67;50.26;99732.09;5039350;28;20530;-60
2023/10/25 04:20:16;;;;;;;4.68;0.85;;;;;;;17.68;50.18;99740.00;5073219;28;20037;-60
2023/10/25 04:22:41;;;;;;;2.50;0.40;;;;;;;17.70;50.23;99731.69;5072910;28;20120;-60
2023/10/25 04:25:08;;;;;;;1.63;0.50;;;;;;;17.71;50.18;99734.19;5074076;28;20545;-60
2023/10/25 04:27:33;;;;;;;1.50;0.60;;;;;;;17.73;49.48;99726.66;5072045;28;20042;-60
2023/10/25 04:29:59;;;;;;;2.30;0.50;;;;;;;17.75;49.15;99730.03;5071750;28;20499;-60
2023/10/25 04:32:25;;;;;;;5.00;1.00;;;;;;;17.75;49.36;99715.66;5055294;28;20037;-60
2023/10/25 04:34:50;;;;;;;1.83;0.60;;;;;;;17.77;50.38;99721.69;5055475;28;20044;-60
2023/10/25 04:37:17;;;;;;;0.98;0.98;;;;;;;17.79;49.92;99717.75;5073124;28;20033;-60
2023/10/25 04:39:42;;;;;;;0.80;0.65;;;;;;;17.77;49.63;99709.00;5055018;28;20031;-60
2023/10/25 04:42:08;;;;;;;2.40;0.80;;;;;;;17.81;50.04;99710.25;5054871;28;20032;-60
2023/10/25 04:44:33;;;;;;;2.38;0.90;;;;;;;17.81;50.66;99715.66;5072982;28;20028;-60
2023/10/25 04:46:59;;;;;;;3.03;0.88;;;;;;;17.78;50.24;99699.81;5071611;28;20031;-60
2023/10/25 04:49:28;;;;;;;3.15;0.30;;;;;;;17.81;49.02;99709.44;5072717;28;20029;-60
2023/10/25 04:51:54;;;;;;;0.77;0.57;;;;;;;17.80;50.04;99699.63;5071927;28;20136;-60
2023/10/25 04:54:19;;;;;;;3.53;0.65;;;;;;;17.78;49.40;99702.50;5072335;28;20025;-59
2023/10/25 04:56:45;;;;;;;3.47;1.27;;;;;;;17.77;49.68;99691.91;5071559;28;20106;-60
2023/10/25 04:59:10;;;;;;;0.70;0.68;;;;;;;17.74;49.94;99682.31;5070753;28;20033;-60
2023/10/25 05:01:35;;;;;;;1.55;0.52;;;;;;;17.73;49.59;99683.34;5072721;28;20036;-60
2023/10/25 05:04:01;;;;;;;1.42;0.50;;;;;;;17.71;50.00;99674.59;5071717;28;20032;-60
2023/10/25 05:06:27;;;;;;;2.25;0.70;;;;;;;17.69;50.04;99660.41;5072830;28;20116;-60
2023/10/25 05:08:53;;;;;;;2.47;0.90;;;;;;;17.71;49.79;99668.31;5072942;28;20025;-59
2023/10/25 05:11:20;;;;;;;2.65;0.90;;;;;;;17.71;49.30;99663.75;5073934;28;20032;-60
2023/10/25 05:13:46;;;;;;;7.38;1.33;;;;;;;17.71;50.16;99652.06;5073001;28;20057;-60
2023/10/25 05:16:12;;;;;;;3.22;0.80;;;;;;;17.70;49.63;99651.22;5072982;28;20504;-60
2023/10/25 05:18:38;;;;;;;4.97;1.02;;;;;;;17.68;49.84;99658.72;5071324;28;20450;-60
2023/10/25 05:21:04;;;;;;;2.00;0.90;;;;;;;17.66;49.29;99650.00;5071364;28;20084;-61
2023/10/25 05:23:35;;;;;;;2.22;0.80;;;;;;;17.65;49.67;99651.00;5072657;28;20028;-60
2023/10/25 05:26:02;;;;;;;1.40;0.73;;;;;;;17.64;49.38;99645.81;5071620;28;20106;-60
2023/10/25 05:28:31;;;;;;;5.78;0.60;;;;;;;17.64;50.56;99638.53;5072903;28;20052;-60
2023/10/25 05:31:01;;;;;;;3.97;1.00;;;;;;;17.65;50.10;99639.34;5074130;28;20112;-59
2023/10/25 05:33:27;;;;;;;2.58;0.90;;;;;;;17.65;49.80;99637.47;5075104;28;20028;-63
2023/10/25 05:35:54;;;;;;;2.10;0.95;;;;;;;17.62;50.28;99627.03;5075240;28;20033;-62
2023/10/25 05:38:20;;;;;;;0.98;0.73;;;;;;;17.65;49.58;99629.34;5075149;28;20056;-62
2023/10/25 05:40:47;;;;;;;1.90;0.75;;;;;;;17.64;49.47;99630.41;5074117;28;20067;-60
2023/10/25 05:43:14;;;;;;;1.55;1.40;;;;;;;17.66;49.79;99622.91;5076304;28;20086;-61
2023/10/25 05:45:42;;;;;;;9.20;1.73;;;;;;;17.65;49.64;99618.50;5076136;28;20032;-61
2023/10/25 05:48:11;;;;;;;1.85;0.70;;;;;;;17.66;49.79;99609.38;5076120;28;20045;-61
2023/10/25 05:50:37;;;;;;;5.57;1.10;;;;;;;17.66;50.09;99598.53;5074927;28;20029;-61
2023/10/25 05:53:03;;;;;;;4.53;0.60;;;;;;;17.66;49.66;99597.69;5070960;28;20125;-60
2023/10/25 05:55:28;;;;;;;1.35;0.65;;;;;;;17.71;49.32;99603.31;5076184;28;20056;-60
2023/10/25 05:57:57;;;;;;;4.47;1.13;;;;;;;17.72;50.54;99602.28;5076114;28;20116;-61
2023/10/25 06:00:24;;;;;;;6.20;1.00;;;;;;;17.72;49.47;99599.59;5074897;28;20454;-60
2023/10/25 06:02:49;;;;;;;3.20;0.60;;;;;;;17.72;49.90;99595.00;5075408;28;20094;-60
2023/10/25 06:05:15;;;;;;;3.55;1.85;;;;;;;17.72;49.73;99592.28;5057004;28;20048;-60
2023/10/25 06:07:42;;;;;;;4.80;1.05;;;;;;;17.72;49.70;99586.03;5075287;28;20055;-61
2023/10/25 06:10:10;;;;;;;3.03;0.85;;;;;;;17.74;50.29;99576.66;5076511;28;20033;-60
2023/10/25 06:12:35;;;;;;;12.13;1.33;;;;;;;17.77;49.83;99576.25;5076989;28;20060;-60
2023/10/25 06:15:01;;;;;;;3.67;0.75;;;;;;;17.72;50.18;99557.09;5059026;28;20055;-60
2023/10/25 06:17:27;;;;;;;3.40;1.00;;;;;;;17.76;49.97;99562.91;5079746;28;20522;-61
2023/10/25 06:19:52;;;;;;;1.98;0.93;;;;;;;17.79;49.48;99563.31;5079519;28;20384;-61
2023/10/25 06:22:18;;;;;;;1.27;0.80;;;;;;;17.81;49.90;99558.53;5077442;28;20029;-60
2023/10/25 06:24:43;;;;;;;2.97;1.00;;;;;;;17.80;50.15;99540.63;5074606;28;20055;-60
2023/10/25 06:27:09;;;;;;;4.28;1.35;;;;;;;17.83;49.75;99540.22;5073614;28;20043;-64
2023/10/25 06:29:34;;;;;;;2.22;0.80;;;;;;;17.84;49.85;99544.56;5075314;28;20050;-61
2023/10/25 06:32:00;;;;;;;1.10;0.85;;;;;;;17.83;49.25;99523.13;5074004;28;20048;-61
2023/10/25 06:34:25;;;;;;;2.92;1.10;;;;;;;17.82;49.57;99525.00;5074366;28;20020;-60
2023/10/25 06:36:51;;;;;;;5.43;1.40;;;;;;;17.83;49.72;99520.41;5073765;28;20070;-61
2023/10/25 06:39:16;;;;;;;2.63;0.73;;;;;;;17.82;49.83;99518.72;5073799;28;20031;-60
2023/10/25 06:41:43;;;;;;;2.70;0.70;;;;;;;17.83;50.48;99520.41;5074663;28;20502;-61
2023/10/25 06:44:09;;;;;;;1.92;0.80;;;;;;;17.84;50.46;99509.34;5073597;28;20020;-61
2023/10/25 06:46:34;;;;;;;1.05;0.60;;;;;;;17.86;50.43;99515.41;5056971;28;20031;-61
2023/10/25 06:49:00;;;;;;;7.75;1.10;;;;;;;17.89;49.50;99508.75;5074617;28;20039;-61
2023/10/25 06:51:25;;;;;;;1.55;0.68;;;;;;;17.91;49.92;99504.78;5073506;28;20021;-61
2023/10/25 06:53:52;;;;;;;1.70;0.80;;;;;;;17.91;49.56;99510.22;5056427;28;20095;-61
2023/10/25 06:56:18;;;;;;;3.80;0.80;;;;;;;17.94;49.79;99500.81;5073417;28;20036;-60
2023/10/25 06:58:43;;;;;;;1.20;0.63;;;;;;;17.96;50.23;99502.28;5074721;28;20029;-61
2023/10/25 07:01:11;;;;;;;3.63;0.80;;;;;;;17.99;49.17;99498.31;5056544;28;20066;-61
2023/10/25 07:03:37;;;;;;;1.63;0.77;;;;;;;18.04;50.11;99490.38;5075270;28;20047;-61
2023/10/25 07:06:04;;;;;;;1.83;0.75;;;;;;;18.08;49.59;99486.22;5073601;28;20472;-61
2023/10/25 07:08:32;;;;;;;1.15;0.70;;;;;;;18.11;49.68;99491.22;5056717;28;20066;-61
2023/10/25 07:10:58;;;;;;;2.65;0.70;;;;;;;18.15;49.85;99480.78;5072772;28;20024;-62
2023/10/25 07:13:32;;;;;;;1.30;0.73;;;;;;;18.17;49.91;99473.28;5074337;28;20117;-61
2023/10/25 07:15:58;;;;;;;8.00;1.05;;;;;;;18.18;49.52;99472.22;5067404;28;20063;-61
2023/10/25 07:18:23;;;;;;;3.25;1.02;;;;;;;18.20;50.16;99462.84;5056315;28;20071;-61
2023/10/25 07:20:50;;;;;;;5.35;0.90;;;;;;;18.23;49.60;99458.88;5056263;28;20047;-60
2023/10/25 07:23:15;;;;;;;9.43;1.17;;;;;;;18.25;49.89;99446.78;5073142;28;20111;-61
2023/10/25 07:25:41;;;;;;;3.47;1.00;;;;;;;18.25;50.04;99443.25;5073409;28;20166;-61
2023/10/25 07:28:06;;;;;;;1.50;1.00;;;;;;;18.27;49.72;99441.13;5072906;28;20024;-61
2023/10/25 07:30:33;;;;;;;3.40;1.05;;;;;;;18.29;49.71;99439.88;5073983;28;20112;-61
2023/10/25 07:32:58;;;;;;;4.97;1.38;;;;;;;18.30;49.79;99432.59;5056005;28;20029;-61
2023/10/25 07:35:24;;;;;;;3.03;0.85;;;;;;;18.29;49.76;99428.19;5074166;28;20035;-61
2023/10/25 07:37:49;;;;;;;7.43;1.08;;;;;;;18.26;50.22;99426.75;5072591;28;20499;-61
2023/10/25 07:40:15;;;;;;;2.10;1.30;;;;;;;18.25;50.08;99416.13;5055965;28;20039;-61
2023/10/25 07:42:41;;;;;;;5.05;1.00;;;;;;;18.19;50.51;99417.81;5074076;28;20028;-61
2023/10/25 07:45:06;;;;;;;2.80;0.80;;;;;;;18.16;50.69;99406.56;5073808;28;20546;-60
2023/10/25 07:47:32;;;;;;;4.05;1.73;;;;;;;18.12;50.75;99395.31;5073675;28;20491;-61
2023/10/25 07:49:57;;;;;;;3.80;0.80;;;;;;;18.08;51.01;99398.66;5073625;28;20025;-61
2023/10/25 07:52:23;;;;;;;3.03;1.00;;;;;;;18.04;50.58;99396.38;5071796;28;20044;-61
2023/10/25 07:54:49;;;;;;;4.68;0.95;;;;;;;17.97;50.56;99386.59;5073559;28;20098;-61
2023/10/25 07:57:14;;;;;;;3.40;1.10;;;;;;;17.94;50.78;99377.03;5072181;28;20033;-61
2023/10/25 07:59:40;;;;;;;1.17;0.88;;;;;;;17.92;51.05;99373.66;5072369;28;20028;-61
2023/10/25 08:02:05;;;;;;;1.27;0.50;;;;;;;17.90;50.70;99364.94;5072452;28;20078;-61
2023/10/25 08:04:31;;;;;;;1.63;0.90;;;;;;;17.86;51.67;99354.75;5072257;28;20112;-61
2023/10/25 08:06:56;;;;;;;1.33;0.70;;;;;;;17.80;51.26;99353.72;5072141;28;20484;-61
2023/10/25 08:09:22;;;;;;;0.70;0.70;;;;;;;17.79;50.86;99357.47;5071931;28;20535;-61
2023/10/25 08:11:47;;;;;;;1.58;0.88;;;;;;;17.79;51.83;99349.31;5073445;28;20085;-61
2023/10/25 08:14:12;;;;;;;1.42;0.68;;;;;;;17.77;51.82;99348.72;5071966;28;20025;-61
2023/10/25 08:16:42;;;;;;;3.00;1.00;;;;;;;17.74;52.11;99349.13;5071966;28;20034;-61
2023/10/25 08:19:10;;;;;;;2.90;0.93;;;;;;;17.72;51.09;99345.81;5071874;28;20052;-61
2023/10/25 08:21:38;;;;;;;3.65;0.82;;;;;;;17.70;50.98;99341.66;5071916;28;20040;-61
2023/10/25 08:24:08;;;;;;;1.05;0.90;;;;;;;17.71;51.25;99337.88;5072006;28;20029;-62
2023/10/25 08:26:39;;;;;;;4.18;0.98;;;;;;;17.67;51.62;99336.66;5055873;28;20387;-61
2023/10/25 08:29:05;;;;;;;2.78;0.65;;;;;;;17.70;52.01;99336.25;5071983;28;20028;-61
2023/10/25 08:31:30;;;;;;;3.70;0.68;;;;;;;17.69;52.12;99330.00;5055255;28;20028;-61
2023/10/25 08:33:56;;;;;;;0.75;0.75;;;;;;;17.73;52.08;99330.38;5073149;28;20085;-61
2023/10/25 08:36:21;;;;;;;2.80;1.00;;;;;;;17.73;51.82;99325.78;5054838;28;20552;-61
2023/10/25 08:38:46;;;;;;;0.98;0.98;;;;;;;17.70;52.12;99309.16;5071640;28;20036;-61
2023/10/25 08:41:12;;;;;;;1.30;0.93;;;;;;;17.72;51.42;99296.22;5071635;28;20037;-60
2023/10/25 08:43:38;;;;;;;1.30;0.88;;;;;;;17.68;51.55;99287.69;5071495;28;20059;-61
2023/10/25 08:46:04;;;;;;;1.88;0.98;;;;;;;17.70;52.20;99296.41;5071799;28;20408;-61
2023/10/25 08:48:31;;;;;;;1.60;1.30;;;;;;;17.68;51.56;99284.97;5071686;28;20028;-61
2023/10/25 08:50:56;;;;;;;6.00;2.00;;;;;;;17.73;51.83;99279.75;5073089;28;20033;-61
2023/10/25 08:53:24;;;;;;;3.08;0.82;;;;;;;17.73;51.60;99282.47;5054931;28;20055;-61
2023/10/25 08:55:54;;;;;;;4.20;0.80;;;;;;;17.76;52.08;99271.19;5071625;28;20079;-61
2023/10/25 08:58:20;;;;;;;2.42;1.13;;;;;;;17.77;52.36;99272.88;5054855;28;20033;-61
2023/10/25 09:00:46;;;;;;;1.58;1.15;;;;;;;17.78;51.77;99262.88;5073071;28;20178;-61
2023/10/25 09:03:30;;;;;;;1.88;1.33;;;;;;;17.80;52.24;99250.78;5071621;28;20039;-61
2023/10/25 09:05:55;;;;;;;5.82;1.27;;;;;;;17.82;51.52;99259.53;5075574;28;20095;-61
2023/10/25 09:08:21;;;;;;;2.50;1.10;;;;;;;17.83;51.71;99239.53;5075613;28;20037;-61
2023/10/25 09:11:11;;;;;;;1.77;1.30;;;;;;;17.90;52.17;99237.59;5058927;28;20031;-61
2023/10/25 09:13:42;;;;;;;2.70;0.82;;;;;;;17.92;52.33;99235.50;5075316;28;20103;-61
2023/10/25 09:16:09;;;;;;;1.25;0.70;;;;;;;17.97;51.47;99227.56;5076762;28;20120;-60
2023/10/25 09:18:36;;;;;;;3.42;0.90;;;;;;;18.02;51.55;99225.03;5075477;28;20086;-61
2023/10/25 09:21:03;;;;;;;4.68;0.85;;;;;;;18.07;52.28;99220.84;5075314;28;20036;-61
2023/10/25 09:23:28;;;;;;;6.28;0.80;;;;;;;18.09;51.68;99214.16;5075194;28;20139;-61
2023/10/25 09:25:55;;;;;;;3.30;1.25;;;;;;;18.11;51.72;99206.66;5076420;28;20119;-62
2023/10/25 09:28:28;;;;;;;1.35;0.90;;;;;;;18.14;51.77;99208.09;5075203;28;20036;-61
2023/10/25 09:30:58;;;;;;;3.92;1.05;;;;;;;18.15;51.64;99213.28;5058125;28;20075;-60
2023/10/25 09:33:24;;;;;;;2.97;0.90;;;;;;;18.15;51.48;99197.03;5073002;28;20036;-60
2023/10/25 09:35:50;;;;;;;4.72;1.02;;;;;;;18.17;51.75;99196.81;5074963;28;20033;-60
2023/10/25 09:38:15;;;;;;;2.65;0.77;;;;;;;18.13;51.41;99184.75;5074963;28;20039;-60
2023/10/25 09:40:41;;;;;;;2.38;0.65;;;;;;;18.15;51.25;99193.47;5057466;28;20028;-60
2023/10/25 09:43:13;;;;;;;2.08;1.35;;;;;;;18.16;51.92;99184.31;5074888;28;20112;-61
2023/10/25 09:45:39;;;;;;;1.20;0.63;;;;;;;18.14;51.88;99178.28;5074858;28;20036;-60
2023/10/25 09:48:07;;;;;;;3.70;0.88;;;;;;;18.14;51.39;99181.84;5074711;28;20261;-61
2023/10/25 09:50:37;;;;;;;1.38;0.70;;;;;;;18.14;51.85;99176.41;5074855;28;20032;-61
2023/10/25 09:53:17;;;;;;;6.75;1.27;;;;;;;18.14;52.06;99172.88;5058048;28;20033;-61
2023/10/25 09:55:53;;;;;;;3.40;1.02;;;;;;;18.13;52.08;99174.75;5074928;28;20364;-61
2023/10/25 09:58:19;;;;;;;2.55;0.90;;;;;;;18.12;51.69;99167.66;5074405;28;20040;-61
2023/10/25 10:00:45;;;;;;;1.85;0.90;;;;;;;18.12;51.41;99162.22;5058152;28;20045;-61
2023/10/25 10:03:24;;;;;;;1.10;0.88;;;;;;;18.10;51.81;99152.66;5074339;28;20110;-61
2023/10/25 10:06:04;;;;;;;1.85;1.20;;;;;;;18.10;51.93;99152.66;5074461;28;20029;-60
2023/10/25 10:08:43;;;;;;;2.38;1.20;;;;;;;17.97;52.13;99159.84;5057657;28;20109;-61
2023/10/25 10:11:11;;;;;;;2.67;1.10;;;;;;;17.83;51.71;99152.84;5074531;28;20040;-63
2023/10/25 10:13:37;;;;;;;2.08;0.90;;;;;;;17.72;52.34;99149.97;5057509;28;20476;-61
2023/10/25 10:16:11;;;;;;;1.08;0.80;;;;;;;17.63;52.48;99152.09;5073925;28;20052;-62
2023/10/25 10:18:46;;;;;;;1.92;0.95;;;;;;;17.51;52.46;99142.94;5074176;28;20524;-61
2023/10/25 10:21:14;;;;;;;10.18;1.30;;;;;;;17.46;52.81;99140.91;5075449;28;20049;-61
2023/10/25 10:23:41;;;;;;;5.50;1.20;;;;;;;17.42;53.57;99136.09;5074156;28;20048;-61
2023/10/25 10:26:08;;;;;;;2.72;1.58;;;;;;;17.38;53.60;99132.19;5057213;28;20102;-61
2023/10/25 10:28:46;;;;;;;1.90;1.20;;;;;;;17.33;53.12;99123.88;5075213;28;20024;-63
2023/10/25 10:31:13;;;;;;;3.83;1.17;;;;;;;17.32;53.42;99120.34;5074151;28;20033;-64
2023/10/25 10:33:47;;;;;;;5.03;1.10;;;;;;;17.29;53.33;99128.03;5074036;28;20044;-62
2023/10/25 10:36:31;;;;;;;4.07;1.45;;;;;;;17.21;53.70;99112.88;5073401;28;20504;-62
2023/10/25 10:39:16;;;;;;;0.95;0.95;;;;;;;17.13;52.93;99106.88;5074891;28;20461;-61
2023/10/25 10:41:42;;;;;;;4.03;1.50;;;;;;;17.10;53.16;99110.00;5074159;28;20442;-65
2023/10/25 10:44:08;;;;;;;1.98;1.02;;;;;;;17.03;54.18;99095.69;5057120;28;20033;-64
2023/10/25 10:46:38;;;;;;;4.20;1.27;;;;;;;17.01;53.94;99097.75;5073764;28;20036;-66
2023/10/25 10:49:05;;;;;;;2.75;1.38;;;;;;;16.96;54.14;99086.75;5056956;28;20032;-64
2023/10/25 10:51:31;;;;;;;2.15;0.95;;;;;;;16.90;54.24;99080.31;5057505;28;20427;-63
2023/10/25 10:53:56;;;;;;;7.05;1.60;;;;;;;16.91;54.55;99086.56;5072834;28;20040;-64
2023/10/25 10:56:22;;;;;;;1.75;1.10;;;;;;;16.89;54.79;99084.88;5056849;28;20036;-65
2023/10/25 10:58:48;;;;;;;3.45;1.35;;;;;;;16.88;54.36;99080.53;5073260;28;20036;-65
2023/10/25 11:01:14;;;;;;;3.47;1.80;;;;;;;16.87;54.55;99076.16;5073512;28;20082;-64
2023/10/25 11:03:40;;;;;;;4.95;1.50;;;;;;;16.84;54.91;99065.78;5074692;28;20033;-65
2023/10/25 11:06:06;;;;;;;3.30;1.35;;;;;;;16.86;54.30;99070.97;5073484;28;20036;-65
2023/10/25 11:08:35;;;;;;;6.35;1.85;;;;;;;16.86;54.82;99074.50;5078389;28;20392;-71
2023/10/25 11:11:00;;;;;;;7.85;2.33;;;;;;;16.88;54.72;99072.44;5050870;28;20036;-66
2023/10/25 11:13:28;;;;;;;4.10;1.58;;;;;;;16.89;54.37;99065.94;5069596;28;20482;-65
2023/10/25 11:16:02;;;;;;;6.88;2.08;;;;;;;16.91;54.64;99064.91;5060641;28;20035;-65
2023/10/25 11:18:28;;;;;;;6.45;2.42;;;;;;;16.93;54.55;99062.81;5071314;28;20120;-64
2023/10/25 11:20:53;;;;;;;4.18;1.90;;;;;;;16.93;55.65;99047.44;5072102;28;20067;-64
2023/10/25 11:23:18;;;;;;;3.90;2.08;;;;;;;16.96;54.93;99048.88;5072808;28;20028;-63
2023/10/25 11:25:44;;;;;;;6.85;2.38;;;;;;;16.94;54.31;99049.09;5056336;28;20037;-65
2023/10/25 11:28:11;;;;;;;3.53;2.00;;;;;;;16.97;55.16;99045.13;5072063;28;20082;-66
2023/10/25 11:30:38;;;;;;;2.90;2.03;;;;;;;16.96;55.48;99038.91;5055956;28;20170;-65
2023/10/25 11:33:04;;;;;;;5.45;2.22;;;;;;;16.98;55.26;99038.66;5072657;28;20029;-67